sensor_id;sensor_type;location;lat;lon;timestamp;P1;durP1;ratioP1;P2;durP2;ratioP2
58260;SDS011;44058;52.898;6.502;2022-08-21T00:01:56;7.00;;;4.15;;
58260;SDS011;44058;52.898;6.502;2022-08-21T00:04:21;7.43;;;4.75;;
58260;SDS011;44058;52.898;6.502;2022-08-21T00:06:48;7.32;;;4.50;;
58260;SDS011;44058;52.898;6.502;2022-08-21T00:09:15;6.50;;;4.43;;
58260;SDS011;44058;52.898;6.502;2022-08-21T00:11:41;5.90;;;4.35;;
58260;SDS011;44058;52.898;6.502;2022-08-21T00:14:08;6.28;;;4.00;;
58260;SDS011;44058;52.898;6.502;2022-08-21T00:16:35;9.30;;;4.72;;
58260;SDS011;44058;52.898;6.502;2022-08-21T00:19:02;7.15;;;4.35;;
58260;SDS011;44058;52.898;6.502;2022-08-21T00:21:28;6.72;;;4.68;;
58260;SDS011;44058;52.898;6.502;2022-08-21T00:23:53;7.53;;;4.40;;
58260;SDS011;44058;52.898;6.502;2022-08-21T00:26:19;4.60;;;3.50;;
58260;SDS011;44058;52.898;6.502;2022-08-21T00:28:45;5.60;;;3.53;;
58260;SDS011;44058;52.898;6.502;2022-08-21T00:31:12;3.38;;;3.03;;
58260;SDS011;44058;52.898;6.502;2022-08-21T00:33:38;3.78;;;3.25;;
58260;SDS011;44058;52.898;6.502;2022-08-21T00:36:03;5.70;;;3.85;;
58260;SDS011;44058;52.898;6.502;2022-08-21T00:38:29;7.55;;;4.03;;
58260;SDS011;44058;52.898;6.502;2022-08-21T00:40:59;5.05;;;3.53;;
58260;SDS011;44058;52.898;6.502;2022-08-21T00:43:27;3.70;;;3.25;;
58260;SDS011;44058;52.898;6.502;2022-08-21T00:45:57;6.30;;;3.50;;
58260;SDS011;44058;52.898;6.502;2022-08-21T00:48:24;4.28;;;3.88;;
58260;SDS011;44058;52.898;6.502;2022-08-21T00:51:05;4.97;;;3.88;;
58260;SDS011;44058;52.898;6.502;2022-08-21T00:53:39;5.10;;;4.03;;
58260;SDS011;44058;52.898;6.502;2022-08-21T00:56:09;5.13;;;4.05;;
58260;SDS011;44058;52.898;6.502;2022-08-21T00:58:36;6.75;;;4.00;;
58260;SDS011;44058;52.898;6.502;2022-08-21T01:01:04;3.97;;;3.58;;
58260;SDS011;44058;52.898;6.502;2022-08-21T01:03:31;5.25;;;4.22;;
58260;SDS011;44058;52.898;6.502;2022-08-21T01:05:57;5.60;;;4.30;;
58260;SDS011;44058;52.898;6.502;2022-08-21T01:08:23;4.55;;;4.15;;
58260;SDS011;44058;52.898;6.502;2022-08-21T01:10:49;3.92;;;3.45;;
58260;SDS011;44058;52.898;6.502;2022-08-21T01:13:17;4.28;;;3.63;;
58260;SDS011;44058;52.898;6.502;2022-08-21T01:15:45;3.83;;;3.53;;
58260;SDS011;44058;52.898;6.502;2022-08-21T01:18:14;6.10;;;4.30;;
58260;SDS011;44058;52.898;6.502;2022-08-21T01:23:50;5.57;;;4.07;;
58260;SDS011;44058;52.898;6.502;2022-08-21T01:26:20;3.53;;;3.25;;
58260;SDS011;44058;52.898;6.502;2022-08-21T01:28:57;3.22;;;2.92;;
58260;SDS011;44058;52.898;6.502;2022-08-21T01:31:27;3.00;;;2.72;;
58260;SDS011;44058;52.898;6.502;2022-08-21T01:33:55;3.30;;;3.00;;
58260;SDS011;44058;52.898;6.502;2022-08-21T01:36:21;2.92;;;2.63;;
58260;SDS011;44058;52.898;6.502;2022-08-21T01:38:47;5.85;;;3.67;;
58260;SDS011;44058;52.898;6.502;2022-08-21T01:41:14;4.95;;;4.40;;
58260;SDS011;44058;52.898;6.502;2022-08-21T01:43:41;4.85;;;4.30;;
58260;SDS011;44058;52.898;6.502;2022-08-21T01:46:08;6.35;;;4.72;;
58260;SDS011;44058;52.898;6.502;2022-08-21T01:48:34;6.57;;;4.97;;
58260;SDS011;44058;52.898;6.502;2022-08-21T01:51:00;6.50;;;5.90;;
58260;SDS011;44058;52.898;6.502;2022-08-21T01:53:26;9.45;;;6.55;;
58260;SDS011;44058;52.898;6.502;2022-08-21T01:55:52;6.90;;;6.20;;
58260;SDS011;44058;52.898;6.502;2022-08-21T01:58:18;6.07;;;5.47;;
58260;SDS011;44058;52.898;6.502;2022-08-21T02:00:43;6.82;;;5.65;;
58260;SDS011;44058;52.898;6.502;2022-08-21T02:03:09;7.45;;;6.70;;
58260;SDS011;44058;52.898;6.502;2022-08-21T02:05:35;5.68;;;5.18;;
58260;SDS011;44058;52.898;6.502;2022-08-21T02:08:01;6.68;;;6.07;;
58260;SDS011;44058;52.898;6.502;2022-08-21T02:10:28;7.80;;;6.10;;
58260;SDS011;44058;52.898;6.502;2022-08-21T02:12:56;7.15;;;6.43;;
58260;SDS011;44058;52.898;6.502;2022-08-21T02:15:22;8.20;;;7.00;;
58260;SDS011;44058;52.898;6.502;2022-08-21T02:17:50;6.57;;;5.68;;
58260;SDS011;44058;52.898;6.502;2022-08-21T02:20:20;5.35;;;4.82;;
58260;SDS011;44058;52.898;6.502;2022-08-21T02:22:48;8.00;;;6.40;;
58260;SDS011;44058;52.898;6.502;2022-08-21T02:25:14;8.48;;;6.57;;
58260;SDS011;44058;52.898;6.502;2022-08-21T02:27:42;8.27;;;7.47;;
58260;SDS011;44058;52.898;6.502;2022-08-21T02:30:14;8.13;;;7.32;;
58260;SDS011;44058;52.898;6.502;2022-08-21T02:32:42;7.25;;;5.68;;
58260;SDS011;44058;52.898;6.502;2022-08-21T02:35:08;5.57;;;5.07;;
58260;SDS011;44058;52.898;6.502;2022-08-21T02:37:42;5.00;;;4.60;;
58260;SDS011;44058;52.898;6.502;2022-08-21T02:40:12;6.35;;;4.65;;
58260;SDS011;44058;52.898;6.502;2022-08-21T02:42:39;8.23;;;6.40;;
58260;SDS011;44058;52.898;6.502;2022-08-21T02:45:05;7.20;;;6.38;;
58260;SDS011;44058;52.898;6.502;2022-08-21T02:47:31;8.90;;;6.78;;
58260;SDS011;44058;52.898;6.502;2022-08-21T02:49:57;7.63;;;6.75;;
58260;SDS011;44058;52.898;6.502;2022-08-21T02:52:23;8.95;;;7.57;;
58260;SDS011;44058;52.898;6.502;2022-08-21T02:54:49;8.10;;;7.30;;
58260;SDS011;44058;52.898;6.502;2022-08-21T02:57:15;7.93;;;7.13;;
58260;SDS011;44058;52.898;6.502;2022-08-21T02:59:41;6.95;;;6.28;;
58260;SDS011;44058;52.898;6.502;2022-08-21T03:02:07;7.05;;;6.40;;
58260;SDS011;44058;52.898;6.502;2022-08-21T03:04:32;9.13;;;7.78;;
58260;SDS011;44058;52.898;6.502;2022-08-21T03:06:58;6.70;;;6.10;;
58260;SDS011;44058;52.898;6.502;2022-08-21T03:09:24;6.22;;;5.30;;
58260;SDS011;44058;52.898;6.502;2022-08-21T03:11:50;6.30;;;5.57;;
58260;SDS011;44058;52.898;6.502;2022-08-21T03:14:16;9.00;;;7.10;;
58260;SDS011;44058;52.898;6.502;2022-08-21T03:16:43;6.75;;;6.10;;
58260;SDS011;44058;52.898;6.502;2022-08-21T03:19:09;8.68;;;7.88;;
58260;SDS011;44058;52.898;6.502;2022-08-21T03:21:35;9.00;;;8.07;;
58260;SDS011;44058;52.898;6.502;2022-08-21T03:24:01;9.32;;;8.23;;
58260;SDS011;44058;52.898;6.502;2022-08-21T03:26:27;7.90;;;7.05;;
58260;SDS011;44058;52.898;6.502;2022-08-21T03:28:53;9.57;;;8.63;;
58260;SDS011;44058;52.898;6.502;2022-08-21T03:31:19;9.05;;;8.00;;
58260;SDS011;44058;52.898;6.502;2022-08-21T03:33:47;8.82;;;7.85;;
58260;SDS011;44058;52.898;6.502;2022-08-21T03:36:13;8.77;;;7.60;;
58260;SDS011;44058;52.898;6.502;2022-08-21T03:38:38;8.00;;;7.07;;
58260;SDS011;44058;52.898;6.502;2022-08-21T03:41:05;7.18;;;6.55;;
58260;SDS011;44058;52.898;6.502;2022-08-21T03:43:31;6.80;;;6.03;;
58260;SDS011;44058;52.898;6.502;2022-08-21T03:45:58;8.18;;;5.60;;
58260;SDS011;44058;52.898;6.502;2022-08-21T03:48:29;7.55;;;5.97;;
58260;SDS011;44058;52.898;6.502;2022-08-21T03:50:55;7.50;;;6.00;;
58260;SDS011;44058;52.898;6.502;2022-08-21T03:53:21;7.75;;;6.60;;
58260;SDS011;44058;52.898;6.502;2022-08-21T03:55:48;10.48;;;7.95;;
58260;SDS011;44058;52.898;6.502;2022-08-21T03:58:16;8.32;;;7.10;;
58260;SDS011;44058;52.898;6.502;2022-08-21T04:00:44;8.43;;;6.90;;
58260;SDS011;44058;52.898;6.502;2022-08-21T04:03:11;10.55;;;7.95;;
58260;SDS011;44058;52.898;6.502;2022-08-21T04:05:37;8.50;;;7.60;;
58260;SDS011;44058;52.898;6.502;2022-08-21T04:08:04;9.75;;;7.35;;
58260;SDS011;44058;52.898;6.502;2022-08-21T04:10:31;9.02;;;7.18;;
58260;SDS011;44058;52.898;6.502;2022-08-21T04:12:59;9.05;;;7.95;;
58260;SDS011;44058;52.898;6.502;2022-08-21T04:15:25;8.38;;;7.43;;
58260;SDS011;44058;52.898;6.502;2022-08-21T04:17:52;8.50;;;7.57;;
58260;SDS011;44058;52.898;6.502;2022-08-21T04:20:18;9.93;;;8.90;;
58260;SDS011;44058;52.898;6.502;2022-08-21T04:22:46;9.02;;;8.13;;
58260;SDS011;44058;52.898;6.502;2022-08-21T04:25:13;9.27;;;8.20;;
58260;SDS011;44058;52.898;6.502;2022-08-21T04:27:40;10.15;;;8.18;;
58260;SDS011;44058;52.898;6.502;2022-08-21T04:30:07;11.48;;;9.13;;
58260;SDS011;44058;52.898;6.502;2022-08-21T04:32:34;11.65;;;8.07;;
58260;SDS011;44058;52.898;6.502;2022-08-21T04:35:03;11.60;;;8.90;;
58260;SDS011;44058;52.898;6.502;2022-08-21T04:37:31;9.85;;;8.63;;
58260;SDS011;44058;52.898;6.502;2022-08-21T04:39:57;9.00;;;8.00;;
58260;SDS011;44058;52.898;6.502;2022-08-21T04:42:23;12.23;;;8.55;;
58260;SDS011;44058;52.898;6.502;2022-08-21T04:44:50;9.68;;;8.68;;
58260;SDS011;44058;52.898;6.502;2022-08-21T04:47:16;10.93;;;9.23;;
58260;SDS011;44058;52.898;6.502;2022-08-21T04:49:42;11.13;;;9.90;;
58260;SDS011;44058;52.898;6.502;2022-08-21T04:52:09;12.18;;;9.70;;
58260;SDS011;44058;52.898;6.502;2022-08-21T04:54:35;12.95;;;10.25;;
58260;SDS011;44058;52.898;6.502;2022-08-21T04:57:02;10.65;;;8.50;;
58260;SDS011;44058;52.898;6.502;2022-08-21T04:59:37;11.65;;;9.05;;
58260;SDS011;44058;52.898;6.502;2022-08-21T05:02:07;9.27;;;8.20;;
58260;SDS011;44058;52.898;6.502;2022-08-21T05:04:35;9.82;;;8.70;;
58260;SDS011;44058;52.898;6.502;2022-08-21T05:07:05;8.95;;;8.07;;
58260;SDS011;44058;52.898;6.502;2022-08-21T05:09:35;9.65;;;8.65;;
58260;SDS011;44058;52.898;6.502;2022-08-21T05:12:03;9.55;;;8.27;;
58260;SDS011;44058;52.898;6.502;2022-08-21T05:14:29;10.98;;;9.07;;
58260;SDS011;44058;52.898;6.502;2022-08-21T05:16:55;9.82;;;7.95;;
58260;SDS011;44058;52.898;6.502;2022-08-21T05:19:21;10.35;;;7.57;;
58260;SDS011;44058;52.898;6.502;2022-08-21T05:21:46;10.20;;;7.05;;
58260;SDS011;44058;52.898;6.502;2022-08-21T05:24:13;10.23;;;7.75;;
58260;SDS011;44058;52.898;6.502;2022-08-21T05:26:39;9.15;;;7.47;;
58260;SDS011;44058;52.898;6.502;2022-08-21T05:29:05;8.60;;;7.70;;
58260;SDS011;44058;52.898;6.502;2022-08-21T05:31:31;8.85;;;6.82;;
58260;SDS011;44058;52.898;6.502;2022-08-21T05:33:56;9.88;;;7.30;;
58260;SDS011;44058;52.898;6.502;2022-08-21T05:36:23;10.70;;;7.45;;
58260;SDS011;44058;52.898;6.502;2022-08-21T05:38:49;9.63;;;7.03;;
58260;SDS011;44058;52.898;6.502;2022-08-21T05:41:15;11.73;;;7.15;;
58260;SDS011;44058;52.898;6.502;2022-08-21T05:43:41;7.47;;;6.05;;
58260;SDS011;44058;52.898;6.502;2022-08-21T05:46:07;7.70;;;6.90;;
58260;SDS011;44058;52.898;6.502;2022-08-21T05:48:33;10.05;;;6.72;;
58260;SDS011;44058;52.898;6.502;2022-08-21T05:51:04;10.00;;;6.45;;
58260;SDS011;44058;52.898;6.502;2022-08-21T05:53:35;9.85;;;6.63;;
58260;SDS011;44058;52.898;6.502;2022-08-21T05:56:02;8.07;;;6.15;;
58260;SDS011;44058;52.898;6.502;2022-08-21T05:58:29;8.23;;;6.30;;
58260;SDS011;44058;52.898;6.502;2022-08-21T06:00:58;9.68;;;6.60;;
58260;SDS011;44058;52.898;6.502;2022-08-21T06:03:29;10.30;;;6.10;;
58260;SDS011;44058;52.898;6.502;2022-08-21T06:05:57;9.05;;;5.97;;
58260;SDS011;44058;52.898;6.502;2022-08-21T06:08:23;9.77;;;5.97;;
58260;SDS011;44058;52.898;6.502;2022-08-21T06:10:50;11.60;;;6.50;;
58260;SDS011;44058;52.898;6.502;2022-08-21T06:13:17;12.68;;;6.90;;
58260;SDS011;44058;52.898;6.502;2022-08-21T06:15:44;9.23;;;6.55;;
58260;SDS011;44058;52.898;6.502;2022-08-21T06:18:11;10.27;;;6.53;;
58260;SDS011;44058;52.898;6.502;2022-08-21T06:20:37;8.63;;;6.03;;
58260;SDS011;44058;52.898;6.502;2022-08-21T06:23:03;10.63;;;6.53;;
58260;SDS011;44058;52.898;6.502;2022-08-21T06:25:29;11.38;;;7.18;;
58260;SDS011;44058;52.898;6.502;2022-08-21T06:28:09;9.88;;;6.53;;
58260;SDS011;44058;52.898;6.502;2022-08-21T06:30:36;11.35;;;5.95;;
58260;SDS011;44058;52.898;6.502;2022-08-21T06:33:02;10.77;;;6.00;;
58260;SDS011;44058;52.898;6.502;2022-08-21T06:35:29;10.05;;;6.30;;
58260;SDS011;44058;52.898;6.502;2022-08-21T06:37:56;10.27;;;6.13;;
58260;SDS011;44058;52.898;6.502;2022-08-21T06:40:23;9.15;;;6.45;;
58260;SDS011;44058;52.898;6.502;2022-08-21T06:42:49;10.32;;;6.00;;
58260;SDS011;44058;52.898;6.502;2022-08-21T06:45:15;6.45;;;5.13;;
58260;SDS011;44058;52.898;6.502;2022-08-21T06:47:40;10.77;;;5.82;;
58260;SDS011;44058;52.898;6.502;2022-08-21T06:50:06;8.93;;;5.80;;
58260;SDS011;44058;52.898;6.502;2022-08-21T06:52:33;11.98;;;6.00;;
58260;SDS011;44058;52.898;6.502;2022-08-21T06:55:00;8.55;;;5.82;;
58260;SDS011;44058;52.898;6.502;2022-08-21T06:57:25;10.63;;;5.78;;
58260;SDS011;44058;52.898;6.502;2022-08-21T06:59:51;10.18;;;5.57;;
58260;SDS011;44058;52.898;6.502;2022-08-21T07:02:17;9.52;;;5.40;;
58260;SDS011;44058;52.898;6.502;2022-08-21T07:04:42;7.90;;;5.10;;
58260;SDS011;44058;52.898;6.502;2022-08-21T07:07:08;9.43;;;5.35;;
58260;SDS011;44058;52.898;6.502;2022-08-21T07:09:34;9.88;;;4.55;;
58260;SDS011;44058;52.898;6.502;2022-08-21T07:12:00;9.07;;;4.70;;
58260;SDS011;44058;52.898;6.502;2022-08-21T07:14:26;8.27;;;4.75;;
58260;SDS011;44058;52.898;6.502;2022-08-21T07:16:52;9.20;;;4.80;;
58260;SDS011;44058;52.898;6.502;2022-08-21T07:19:18;9.93;;;4.75;;
58260;SDS011;44058;52.898;6.502;2022-08-21T07:21:44;9.27;;;4.63;;
58260;SDS011;44058;52.898;6.502;2022-08-21T07:24:10;9.05;;;4.43;;
58260;SDS011;44058;52.898;6.502;2022-08-21T07:26:36;8.45;;;4.15;;
58260;SDS011;44058;52.898;6.502;2022-08-21T07:29:02;9.35;;;4.25;;
58260;SDS011;44058;52.898;6.502;2022-08-21T07:31:28;11.80;;;4.63;;
58260;SDS011;44058;52.898;6.502;2022-08-21T07:33:54;8.60;;;4.43;;
58260;SDS011;44058;52.898;6.502;2022-08-21T07:36:20;7.18;;;4.53;;
58260;SDS011;44058;52.898;6.502;2022-08-21T07:38:47;6.07;;;3.88;;
58260;SDS011;44058;52.898;6.502;2022-08-21T07:41:17;8.02;;;4.40;;
58260;SDS011;44058;52.898;6.502;2022-08-21T07:43:44;7.82;;;4.00;;
58260;SDS011;44058;52.898;6.502;2022-08-21T07:46:10;8.00;;;4.15;;
58260;SDS011;44058;52.898;6.502;2022-08-21T07:48:36;7.63;;;3.75;;
58260;SDS011;44058;52.898;6.502;2022-08-21T07:51:04;6.18;;;3.60;;
58260;SDS011;44058;52.898;6.502;2022-08-21T07:53:34;9.00;;;3.80;;
58260;SDS011;44058;52.898;6.502;2022-08-21T07:56:00;10.50;;;3.85;;
58260;SDS011;44058;52.898;6.502;2022-08-21T07:58:27;10.32;;;3.42;;
58260;SDS011;44058;52.898;6.502;2022-08-21T08:00:52;8.70;;;3.53;;
58260;SDS011;44058;52.898;6.502;2022-08-21T08:03:18;6.22;;;3.00;;
58260;SDS011;44058;52.898;6.502;2022-08-21T08:05:44;9.63;;;3.67;;
58260;SDS011;44058;52.898;6.502;2022-08-21T08:08:09;8.73;;;3.20;;
58260;SDS011;44058;52.898;6.502;2022-08-21T08:10:36;8.13;;;3.28;;
58260;SDS011;44058;52.898;6.502;2022-08-21T08:13:03;4.83;;;2.87;;
58260;SDS011;44058;52.898;6.502;2022-08-21T08:15:29;10.70;;;3.53;;
58260;SDS011;44058;52.898;6.502;2022-08-21T08:17:55;9.07;;;3.70;;
58260;SDS011;44058;52.898;6.502;2022-08-21T08:20:22;9.23;;;3.40;;
58260;SDS011;44058;52.898;6.502;2022-08-21T08:22:50;8.00;;;3.80;;
58260;SDS011;44058;52.898;6.502;2022-08-21T08:25:16;13.52;;;3.47;;
58260;SDS011;44058;52.898;6.502;2022-08-21T08:27:44;10.07;;;3.35;;
58260;SDS011;44058;52.898;6.502;2022-08-21T08:30:11;10.80;;;3.80;;
58260;SDS011;44058;52.898;6.502;2022-08-21T08:32:40;8.20;;;3.50;;
58260;SDS011;44058;52.898;6.502;2022-08-21T08:35:06;9.20;;;3.05;;
58260;SDS011;44058;52.898;6.502;2022-08-21T08:37:33;7.30;;;2.50;;
58260;SDS011;44058;52.898;6.502;2022-08-21T08:40:04;6.95;;;2.20;;
58260;SDS011;44058;52.898;6.502;2022-08-21T08:42:31;8.55;;;2.55;;
58260;SDS011;44058;52.898;6.502;2022-08-21T08:47:28;4.53;;;2.17;;
58260;SDS011;44058;52.898;6.502;2022-08-21T08:50:10;6.55;;;2.13;;
58260;SDS011;44058;52.898;6.502;2022-08-21T08:52:52;6.50;;;2.08;;
58260;SDS011;44058;52.898;6.502;2022-08-21T08:55:28;4.60;;;1.80;;
58260;SDS011;44058;52.898;6.502;2022-08-21T08:58:02;6.03;;;1.80;;
58260;SDS011;44058;52.898;6.502;2022-08-21T09:00:29;7.22;;;1.70;;
58260;SDS011;44058;52.898;6.502;2022-08-21T09:02:57;4.85;;;1.40;;
58260;SDS011;44058;52.898;6.502;2022-08-21T09:05:26;5.10;;;2.08;;
58260;SDS011;44058;52.898;6.502;2022-08-21T09:11:01;5.40;;;1.77;;
58260;SDS011;44058;52.898;6.502;2022-08-21T09:13:58;6.45;;;1.73;;
58260;SDS011;44058;52.898;6.502;2022-08-21T09:19:03;7.30;;;1.98;;
58260;SDS011;44058;52.898;6.502;2022-08-21T09:21:49;6.40;;;2.30;;
58260;SDS011;44058;52.898;6.502;2022-08-21T09:27:30;7.63;;;2.80;;
58260;SDS011;44058;52.898;6.502;2022-08-21T09:29:50;6.38;;;2.30;;
58260;SDS011;44058;52.898;6.502;2022-08-21T09:37:33;7.18;;;2.35;;
58260;SDS011;44058;52.898;6.502;2022-08-21T09:40:20;8.60;;;2.65;;
58260;SDS011;44058;52.898;6.502;2022-08-21T09:43:16;4.97;;;2.00;;
58260;SDS011;44058;52.898;6.502;2022-08-21T09:45:43;8.55;;;2.40;;
58260;SDS011;44058;52.898;6.502;2022-08-21T09:48:14;6.70;;;2.22;;
58260;SDS011;44058;52.898;6.502;2022-08-21T09:50:46;7.10;;;2.40;;
58260;SDS011;44058;52.898;6.502;2022-08-21T09:53:22;7.05;;;2.35;;
58260;SDS011;44058;52.898;6.502;2022-08-21T09:58:38;5.28;;;2.17;;
58260;SDS011;44058;52.898;6.502;2022-08-21T10:01:06;7.65;;;2.40;;
58260;SDS011;44058;52.898;6.502;2022-08-21T10:03:39;7.18;;;2.42;;
58260;SDS011;44058;52.898;6.502;2022-08-21T10:06:06;6.65;;;2.35;;
58260;SDS011;44058;52.898;6.502;2022-08-21T10:08:39;5.13;;;2.50;;
58260;SDS011;44058;52.898;6.502;2022-08-21T10:11:10;6.00;;;1.85;;
58260;SDS011;44058;52.898;6.502;2022-08-21T10:14:03;8.05;;;2.30;;
58260;SDS011;44058;52.898;6.502;2022-08-21T10:27:36;10.20;;;2.70;;
58260;SDS011;44058;52.898;6.502;2022-08-21T10:30:16;6.53;;;2.30;;
58260;SDS011;44058;52.898;6.502;2022-08-21T10:33:05;8.05;;;2.10;;
58260;SDS011;44058;52.898;6.502;2022-08-21T10:38:34;6.10;;;2.22;;
58260;SDS011;44058;52.898;6.502;2022-08-21T10:41:29;7.68;;;2.20;;
58260;SDS011;44058;52.898;6.502;2022-08-21T10:55:04;6.70;;;2.60;;
58260;SDS011;44058;52.898;6.502;2022-08-21T10:57:52;8.77;;;2.05;;
58260;SDS011;44058;52.898;6.502;2022-08-21T11:02:55;5.57;;;1.70;;
58260;SDS011;44058;52.898;6.502;2022-08-21T11:05:58;4.72;;;2.03;;
58260;SDS011;44058;52.898;6.502;2022-08-21T11:08:43;4.25;;;1.75;;
58260;SDS011;44058;52.898;6.502;2022-08-21T11:11:19;6.60;;;2.08;;
58260;SDS011;44058;52.898;6.502;2022-08-21T11:14:01;7.97;;;1.70;;
58260;SDS011;44058;52.898;6.502;2022-08-21T11:16:33;4.90;;;1.65;;
58260;SDS011;44058;52.898;6.502;2022-08-21T11:25:00;5.88;;;2.25;;
58260;SDS011;44058;52.898;6.502;2022-08-21T11:27:36;4.60;;;1.90;;
58260;SDS011;44058;52.898;6.502;2022-08-21T11:30:23;7.85;;;2.55;;
58260;SDS011;44058;52.898;6.502;2022-08-21T11:33:02;5.28;;;1.98;;
58260;SDS011;44058;52.898;6.502;2022-08-21T11:35:46;4.82;;;1.75;;
58260;SDS011;44058;52.898;6.502;2022-08-21T11:41:17;3.83;;;1.60;;
58260;SDS011;44058;52.898;6.502;2022-08-21T11:43:57;5.72;;;2.10;;
58260;SDS011;44058;52.898;6.502;2022-08-21T11:46:36;6.22;;;2.05;;
58260;SDS011;44058;52.898;6.502;2022-08-21T11:52:07;5.63;;;1.90;;
58260;SDS011;44058;52.898;6.502;2022-08-21T11:57:32;8.88;;;2.13;;
58260;SDS011;44058;52.898;6.502;2022-08-21T12:00:19;6.97;;;2.05;;
58260;SDS011;44058;52.898;6.502;2022-08-21T12:02:55;4.35;;;1.80;;
58260;SDS011;44058;52.898;6.502;2022-08-21T12:05:25;5.25;;;1.58;;
58260;SDS011;44058;52.898;6.502;2022-08-21T12:08:06;4.90;;;1.90;;
58260;SDS011;44058;52.898;6.502;2022-08-21T12:10:40;5.82;;;2.10;;
58260;SDS011;44058;52.898;6.502;2022-08-21T12:13:20;5.13;;;1.77;;
58260;SDS011;44058;52.898;6.502;2022-08-21T12:16:08;6.60;;;1.80;;
58260;SDS011;44058;52.898;6.502;2022-08-21T12:18:36;4.30;;;1.80;;
58260;SDS011;44058;52.898;6.502;2022-08-21T12:26:29;5.72;;;1.85;;
58260;SDS011;44058;52.898;6.502;2022-08-21T12:29:20;4.70;;;2.00;;
58260;SDS011;44058;52.898;6.502;2022-08-21T12:31:57;4.82;;;2.00;;
58260;SDS011;44058;52.898;6.502;2022-08-21T12:35:09;6.28;;;2.30;;
58260;SDS011;44058;52.898;6.502;2022-08-21T12:37:47;4.00;;;2.00;;
58260;SDS011;44058;52.898;6.502;2022-08-21T12:40:19;3.90;;;1.67;;
58260;SDS011;44058;52.898;6.502;2022-08-21T12:42:58;5.05;;;2.20;;
58260;SDS011;44058;52.898;6.502;2022-08-21T12:45:31;5.47;;;1.77;;
58260;SDS011;44058;52.898;6.502;2022-08-21T12:48:09;7.78;;;2.45;;
58260;SDS011;44058;52.898;6.502;2022-08-21T12:50:42;5.78;;;1.98;;
58260;SDS011;44058;52.898;6.502;2022-08-21T12:53:24;6.13;;;2.03;;
58260;SDS011;44058;52.898;6.502;2022-08-21T12:56:10;7.68;;;2.63;;
58260;SDS011;44058;52.898;6.502;2022-08-21T12:58:39;5.13;;;1.83;;
58260;SDS011;44058;52.898;6.502;2022-08-21T13:01:17;4.60;;;1.80;;
58260;SDS011;44058;52.898;6.502;2022-08-21T13:03:49;5.60;;;2.10;;
58260;SDS011;44058;52.898;6.502;2022-08-21T13:06:18;7.38;;;2.50;;
58260;SDS011;44058;52.898;6.502;2022-08-21T13:08:46;6.85;;;2.42;;
58260;SDS011;44058;52.898;6.502;2022-08-21T13:11:22;7.75;;;2.45;;
58260;SDS011;44058;52.898;6.502;2022-08-21T13:13:50;6.72;;;1.70;;
58260;SDS011;44058;52.898;6.502;2022-08-21T13:16:19;6.82;;;2.25;;
58260;SDS011;44058;52.898;6.502;2022-08-21T13:18:55;6.10;;;1.85;;
58260;SDS011;44058;52.898;6.502;2022-08-21T13:21:38;6.82;;;2.22;;
58260;SDS011;44058;52.898;6.502;2022-08-21T13:24:08;7.35;;;2.40;;
58260;SDS011;44058;52.898;6.502;2022-08-21T13:26:40;6.32;;;2.35;;
58260;SDS011;44058;52.898;6.502;2022-08-21T13:29:07;6.30;;;2.33;;
58260;SDS011;44058;52.898;6.502;2022-08-21T13:31:36;4.97;;;1.92;;
58260;SDS011;44058;52.898;6.502;2022-08-21T13:34:04;9.85;;;2.30;;
58260;SDS011;44058;52.898;6.502;2022-08-21T13:36:34;7.28;;;2.30;;
58260;SDS011;44058;52.898;6.502;2022-08-21T13:39:06;6.65;;;2.30;;
58260;SDS011;44058;52.898;6.502;2022-08-21T13:41:35;6.38;;;1.98;;
58260;SDS011;44058;52.898;6.502;2022-08-21T13:44:06;4.82;;;2.47;;
58260;SDS011;44058;52.898;6.502;2022-08-21T13:46:47;7.68;;;2.42;;
58260;SDS011;44058;52.898;6.502;2022-08-21T13:49:15;5.90;;;2.27;;
58260;SDS011;44058;52.898;6.502;2022-08-21T13:51:42;3.72;;;1.90;;
58260;SDS011;44058;52.898;6.502;2022-08-21T13:54:21;5.73;;;1.97;;
58260;SDS011;44058;52.898;6.502;2022-08-21T13:57:16;7.55;;;1.90;;
58260;SDS011;44058;52.898;6.502;2022-08-21T13:59:43;6.28;;;2.13;;
58260;SDS011;44058;52.898;6.502;2022-08-21T14:02:22;5.55;;;2.03;;
58260;SDS011;44058;52.898;6.502;2022-08-21T14:04:54;6.25;;;2.45;;
58260;SDS011;44058;52.898;6.502;2022-08-21T14:07:33;5.47;;;2.00;;
58260;SDS011;44058;52.898;6.502;2022-08-21T14:10:01;8.07;;;2.40;;
58260;SDS011;44058;52.898;6.502;2022-08-21T14:12:36;6.85;;;2.08;;
58260;SDS011;44058;52.898;6.502;2022-08-21T14:15:07;5.93;;;1.88;;
58260;SDS011;44058;52.898;6.502;2022-08-21T14:17:36;4.47;;;1.87;;
58260;SDS011;44058;52.898;6.502;2022-08-21T14:20:04;4.60;;;1.67;;
58260;SDS011;44058;52.898;6.502;2022-08-21T14:27:31;4.72;;;2.10;;
58260;SDS011;44058;52.898;6.502;2022-08-21T14:29:59;4.33;;;1.97;;
58260;SDS011;44058;52.898;6.502;2022-08-21T14:32:38;5.57;;;2.17;;
58260;SDS011;44058;52.898;6.502;2022-08-21T14:37:31;5.63;;;2.58;;
58260;SDS011;44058;52.898;6.502;2022-08-21T14:39:57;4.65;;;1.75;;
58260;SDS011;44058;52.898;6.502;2022-08-21T14:42:23;7.85;;;1.92;;
58260;SDS011;44058;52.898;6.502;2022-08-21T14:44:49;7.80;;;2.10;;
58260;SDS011;44058;52.898;6.502;2022-08-21T14:47:16;5.18;;;2.03;;
58260;SDS011;44058;52.898;6.502;2022-08-21T14:49:42;5.45;;;1.52;;
58260;SDS011;44058;52.898;6.502;2022-08-21T14:52:08;4.45;;;1.52;;
58260;SDS011;44058;52.898;6.502;2022-08-21T14:54:34;6.72;;;1.80;;
58260;SDS011;44058;52.898;6.502;2022-08-21T14:57:04;5.22;;;2.42;;
58260;SDS011;44058;52.898;6.502;2022-08-21T14:59:34;4.97;;;1.92;;
58260;SDS011;44058;52.898;6.502;2022-08-21T15:02:00;6.20;;;1.77;;
58260;SDS011;44058;52.898;6.502;2022-08-21T15:04:29;4.22;;;1.60;;
58260;SDS011;44058;52.898;6.502;2022-08-21T15:06:55;4.32;;;1.67;;
58260;SDS011;44058;52.898;6.502;2022-08-21T15:09:21;6.57;;;2.55;;
58260;SDS011;44058;52.898;6.502;2022-08-21T15:11:49;4.50;;;1.70;;
58260;SDS011;44058;52.898;6.502;2022-08-21T15:14:20;5.87;;;1.60;;
58260;SDS011;44058;52.898;6.502;2022-08-21T15:16:48;6.35;;;1.70;;
58260;SDS011;44058;52.898;6.502;2022-08-21T15:19:15;6.20;;;1.98;;
58260;SDS011;44058;52.898;6.502;2022-08-21T15:21:41;5.30;;;1.67;;
58260;SDS011;44058;52.898;6.502;2022-08-21T15:24:06;7.97;;;2.00;;
58260;SDS011;44058;52.898;6.502;2022-08-21T15:26:32;5.03;;;1.88;;
58260;SDS011;44058;52.898;6.502;2022-08-21T15:28:59;4.70;;;1.98;;
58260;SDS011;44058;52.898;6.502;2022-08-21T15:31:26;4.28;;;1.77;;
58260;SDS011;44058;52.898;6.502;2022-08-21T15:33:52;4.97;;;1.70;;
58260;SDS011;44058;52.898;6.502;2022-08-21T15:36:18;4.93;;;2.13;;
58260;SDS011;44058;52.898;6.502;2022-08-21T15:38:44;4.35;;;1.67;;
58260;SDS011;44058;52.898;6.502;2022-08-21T15:41:10;4.13;;;1.63;;
58260;SDS011;44058;52.898;6.502;2022-08-21T15:43:44;5.93;;;1.63;;
58260;SDS011;44058;52.898;6.502;2022-08-21T15:46:13;5.07;;;1.73;;
58260;SDS011;44058;52.898;6.502;2022-08-21T15:48:41;3.83;;;1.70;;
58260;SDS011;44058;52.898;6.502;2022-08-21T15:51:07;3.58;;;1.50;;
58260;SDS011;44058;52.898;6.502;2022-08-21T15:56:03;4.72;;;1.60;;
58260;SDS011;44058;52.898;6.502;2022-08-21T15:58:30;2.95;;;1.55;;
58260;SDS011;44058;52.898;6.502;2022-08-21T16:00:58;3.35;;;1.52;;
58260;SDS011;44058;52.898;6.502;2022-08-21T16:03:25;5.25;;;1.77;;
58260;SDS011;44058;52.898;6.502;2022-08-21T16:05:51;6.28;;;1.70;;
58260;SDS011;44058;52.898;6.502;2022-08-21T16:08:18;5.25;;;1.70;;
58260;SDS011;44058;52.898;6.502;2022-08-21T16:10:44;4.50;;;1.60;;
58260;SDS011;44058;52.898;6.502;2022-08-21T16:13:16;4.43;;;1.80;;
58260;SDS011;44058;52.898;6.502;2022-08-21T16:15:47;3.95;;;1.67;;
58260;SDS011;44058;52.898;6.502;2022-08-21T16:18:13;3.80;;;1.40;;
58260;SDS011;44058;52.898;6.502;2022-08-21T16:20:45;4.38;;;1.70;;